Tuesday, January 15, 2019, 6:29 PM EST
Back to Local

KBGR, Bangor Int'l Airport

Location: Bangor, ME, United States Lat: 44.8
Local Time: 6:29 PM EST (23:29 GMT) Lon: -68.817
Time Zone: US/Eastern Elev: 193 ft

Show me the last for .
Show Decoded

2019-01-15 17:53 METAR KBGR 152253Z COR 00000KT 10SM BKN045 BKN200 M06/M09 A3004 RMK AO2 SLP178
                 T10561094 =
2019-01-15 16:53 METAR KBGR 152153Z 30004KT 10SM BKN046 BKN200 M04/M10 A3004 RMK AO2 SLP177
                 T10441100 =
2019-01-15 15:53 METAR KBGR 152053Z 31005KT 10SM FEW050 SCT200 M03/M10 A3003 RMK AO2 SLP174
                 T10331100 53009 =
2019-01-15 14:53 METAR KBGR 151953Z 31006KT 10SM FEW048 SCT200 M03/M10 A3002 RMK AO2 SLP170
                 T10331100 =
2019-01-15 13:53 METAR KBGR 151853Z 34007KT 10SM FEW048 SCT200 M03/M09 A3000 RMK AO2 SLP165
                 T10281094 =
2019-01-15 12:53 METAR KBGR 151753Z 31009KT 10SM SCT050 BKN200 M03/M10 A3000 RMK AO2 SLP165 4/001
                 T10331100 11033 21111 56017 =
2019-01-15 11:53 METAR KBGR 151653Z 34008KT 10SM SCT050 SCT200 M04/M10 A3002 RMK AO2 SLP169
                 T10441100 =
2019-01-15 10:53 METAR KBGR 151553Z 36005KT 10SM BKN048 M06/M11 A3004 RMK AO2 SLP177 T10561111 =
2019-01-15 09:53 METAR KBGR 151453Z 04003KT 10SM BKN050 M07/M12 A3005 RMK AO2 SLP182 T10721122
                 53013 =
2019-01-15 08:53 METAR KBGR 151353Z 00000KT 10SM OVC050 M08/M12 A3004 RMK AO2 SLP177 T10831122 =
2019-01-15 07:53 METAR KBGR 151253Z 00000KT 10SM BKN050 M10/M13 A3003 RMK AO2 SLP174 T11001133 $
                 =
2019-01-15 06:53 METAR KBGR 151153Z 00000KT 10SM BKN050 M11/M14 A3002 RMK AO2 SLP170 4/001
                 T11111139 11111 21144 53008 $ =
2019-01-15 05:53 METAR KBGR 151053Z 00000KT 10SM OVC050 M12/M14 A3001 RMK AO2 SLP168 T11221139 $
                 =
2019-01-15 04:53 METAR KBGR 150953Z 00000KT 10SM SCT250 M13/M16 A2999 RMK AO2 SLP163 T11331156 $
                 =
2019-01-15 03:53 METAR KBGR 150853Z 00000KT 10SM SCT250 M14/M16 A2999 RMK AO2 SLP161 T11391161
                 56005 =
2019-01-15 02:53 METAR KBGR 150753Z 33004KT 10SM SCT250 M13/M16 A2999 RMK AO2 SLP161 T11331156 =
2019-01-15 01:53 METAR KBGR 150653Z 00000KT 10SM SCT250 M14/M16 A3000 RMK AO2 SLP164 T11391156 =
2019-01-15 00:53 METAR KBGR 150553Z 00000KT 10SM FEW250 M13/M15 A3001 RMK AO2 SLP166 4/001
                 T11331150 11111 21139 56018 =
2019-01-14 23:53 METAR KBGR 150453Z 00000KT 10SM FEW250 M11/M14 A3002 RMK AO2 SLP169 T11111144
                 410671172 =
2019-01-14 22:53 METAR KBGR 150353Z 00000KT 10SM FEW250 M13/M15 A3005 RMK AO2 SLP181 T11331150 =
2019-01-14 21:53 METAR KBGR 150253Z 00000KT 10SM FEW250 M13/M16 A3006 RMK AO2 SLP185 T11331156
                 56019 =
2019-01-14 20:53 METAR KBGR 150153Z 00000KT 10SM FEW250 M13/M15 A3007 RMK AO2 SLP190 T11331150 =
2019-01-14 19:53 METAR KBGR 150053Z 00000KT 10SM FEW250 M12/M14 A3009 RMK AO2 SLP197 T11221144 =
2019-01-14 18:53 METAR KBGR 142353Z 00000KT 10SM FEW250 M12/M14 A3011 RMK AO2 SLP205 4/001
                 T11171144 11067 21117 58009 =

Support USWX by starting your Amazon purchase here.